createdAt,value
2023-04-14T00:02:01.668Z,7.55
2023-04-14T00:04:30.055Z,7.03
2023-04-14T00:06:59.946Z,7.07
2023-04-14T00:09:30.007Z,7.53
2023-04-14T00:11:58.347Z,6.70
2023-04-14T00:14:26.484Z,8.98
2023-04-14T00:16:54.754Z,8.05
2023-04-14T00:19:23.132Z,7.93
2023-04-14T00:21:51.487Z,9.27
2023-04-14T00:24:19.627Z,9.15
2023-04-14T00:26:49.233Z,8.35
2023-04-14T00:29:17.370Z,8.57
2023-04-14T00:31:45.668Z,12.00
2023-04-14T00:34:14.036Z,10.35
2023-04-14T00:36:42.237Z,9.68
2023-04-14T00:39:10.387Z,11.90
2023-04-14T00:41:38.545Z,9.30
2023-04-14T00:44:08.339Z,9.35
2023-04-14T00:46:37.405Z,8.90
2023-04-14T00:49:06.140Z,8.38
2023-04-14T00:51:35.150Z,8.18
2023-04-14T00:54:06.416Z,7.10
2023-04-14T00:56:34.998Z,7.15
2023-04-14T00:59:04.316Z,6.90
2023-04-14T01:01:36.609Z,6.72
2023-04-14T01:04:05.783Z,7.00
2023-04-14T01:06:37.380Z,6.75
2023-04-14T01:09:06.441Z,7.35
2023-04-14T01:11:47.061Z,6.38
2023-04-14T01:14:23.924Z,6.53
2023-04-14T01:16:57.198Z,6.57
2023-04-14T01:19:43.535Z,9.35
2023-04-14T01:22:16.752Z,9.48
2023-04-14T01:25:06.923Z,10.88
2023-04-14T01:27:44.868Z,11.00
2023-04-14T01:30:28.494Z,10.35
2023-04-14T01:33:02.965Z,11.80
2023-04-14T01:35:37.928Z,11.45
2023-04-14T01:38:10.657Z,10.35
2023-04-14T01:40:46.756Z,6.88
2023-04-14T01:43:15.792Z,7.32
2023-04-14T01:45:50.540Z,6.88
2023-04-14T01:48:20.787Z,6.20
2023-04-14T01:50:50.596Z,6.50
2023-04-14T01:53:20.618Z,7.43
2023-04-14T01:55:51.001Z,8.98
2023-04-14T01:58:21.608Z,8.00
2023-04-14T02:00:52.859Z,6.72
2023-04-14T02:03:24.421Z,6.13
2023-04-14T02:05:55.981Z,6.13
2023-04-14T02:08:25.365Z,7.05
2023-04-14T02:10:55.081Z,7.10
2023-04-14T02:13:27.134Z,7.38
2023-04-14T02:15:55.657Z,7.07
2023-04-14T02:18:25.538Z,6.22
2023-04-14T02:20:57.255Z,6.30
2023-04-14T02:23:25.868Z,6.40
2023-04-14T02:26:01.510Z,8.32
2023-04-14T02:28:34.387Z,9.82
2023-04-14T02:31:08.574Z,11.57
2023-04-14T02:33:42.297Z,11.68
2023-04-14T02:36:17.860Z,11.30
2023-04-14T02:38:50.706Z,11.65
2023-04-14T02:41:24.429Z,11.73
2023-04-14T02:44:05.001Z,10.18
2023-04-14T02:46:37.133Z,10.55
2023-04-14T02:49:07.929Z,12.43
2023-04-14T02:51:38.913Z,12.10
2023-04-14T02:54:07.507Z,12.25
2023-04-14T02:56:42.356Z,11.02
2023-04-14T02:59:11.350Z,11.25
2023-04-14T03:01:51.292Z,9.82
2023-04-14T03:04:22.875Z,11.15
2023-04-14T03:06:52.757Z,9.35
2023-04-14T03:09:22.914Z,8.50
2023-04-14T03:11:54.038Z,9.40
2023-04-14T03:14:23.336Z,8.68
2023-04-14T03:16:53.663Z,8.07
2023-04-14T03:19:27.957Z,8.73
2023-04-14T03:21:58.791Z,8.02
2023-04-14T03:24:31.000Z,8.13
2023-04-14T03:27:05.462Z,8.05
2023-04-14T03:29:37.836Z,8.45
2023-04-14T03:32:07.910Z,8.05
2023-04-14T03:34:46.474Z,6.90
2023-04-14T03:37:19.143Z,8.10
2023-04-14T03:39:50.797Z,8.60
2023-04-14T03:42:24.931Z,8.05
2023-04-14T03:44:56.121Z,8.63
2023-04-14T03:47:26.908Z,8.73
2023-04-14T03:50:01.125Z,7.57
2023-04-14T03:52:35.336Z,8.18
2023-04-14T03:55:07.109Z,8.13
2023-04-14T03:57:38.528Z,8.43
2023-04-14T04:00:09.472Z,8.43
2023-04-14T04:02:46.799Z,8.55
2023-04-14T04:05:16.950Z,8.82
2023-04-14T04:07:46.865Z,8.50
2023-04-14T04:10:16.292Z,8.48
2023-04-14T04:12:46.677Z,9.20
2023-04-14T04:15:15.606Z,9.35
2023-04-14T04:17:45.750Z,8.20
2023-04-14T04:20:16.746Z,9.00
2023-04-14T04:22:49.699Z,9.10
2023-04-14T04:25:18.648Z,7.93
2023-04-14T04:27:54.324Z,8.73
2023-04-14T04:30:25.231Z,9.55
2023-04-14T04:32:53.424Z,8.43
2023-04-14T04:35:24.705Z,8.35
2023-04-14T04:37:54.540Z,9.60
2023-04-14T04:40:23.886Z,8.88
2023-04-14T04:42:55.903Z,9.55
2023-04-14T04:45:45.804Z,9.63
2023-04-14T04:48:16.730Z,9.70
2023-04-14T04:50:47.172Z,9.80
2023-04-14T04:53:15.490Z,10.02
2023-04-14T04:55:43.741Z,10.43
2023-04-14T04:58:11.939Z,10.23
2023-04-14T05:00:42.101Z,10.32
2023-04-14T05:03:10.296Z,10.30
2023-04-14T05:05:38.861Z,11.57
2023-04-14T05:08:08.836Z,11.40
2023-04-14T05:10:37.592Z,9.20
2023-04-14T05:13:05.983Z,10.63
2023-04-14T05:15:34.704Z,11.02
2023-04-14T05:18:04.145Z,12.02
2023-04-14T05:20:33.779Z,11.02
2023-04-14T05:23:03.003Z,13.13
2023-04-14T05:25:35.517Z,12.52
2023-04-14T05:28:03.619Z,10.40
2023-04-14T05:30:31.826Z,10.18
2023-04-14T05:32:59.968Z,12.95
2023-04-14T05:35:28.183Z,12.10
2023-04-14T05:37:56.553Z,11.93
2023-04-14T05:40:24.865Z,12.27
2023-04-14T05:42:55.390Z,11.40
2023-04-14T05:45:25.108Z,11.13
2023-04-14T05:47:53.271Z,10.55
2023-04-14T05:50:22.335Z,11.95
2023-04-14T05:52:51.095Z,12.13
2023-04-14T05:55:19.745Z,12.35
2023-04-14T05:57:48.072Z,11.65
2023-04-14T06:00:18.078Z,11.63
2023-04-14T06:02:46.671Z,12.45
2023-04-14T06:05:14.906Z,12.43
2023-04-14T06:07:43.494Z,13.20
2023-04-14T06:10:15.127Z,13.80
2023-04-14T06:12:43.249Z,12.68
2023-04-14T06:15:11.639Z,12.10
2023-04-14T06:17:41.813Z,11.57
2023-04-14T06:20:11.327Z,11.88
2023-04-14T06:22:40.534Z,11.93
2023-04-14T06:25:10.873Z,11.77
2023-04-14T06:27:39.064Z,13.85
2023-04-14T06:30:08.572Z,11.40
2023-04-14T06:32:36.829Z,12.38
2023-04-14T06:35:07.581Z,11.65
2023-04-14T06:37:35.757Z,11.20
2023-04-14T06:40:04.046Z,11.45
2023-04-14T06:42:32.162Z,11.68
2023-04-14T06:45:00.352Z,11.38
2023-04-14T06:47:28.506Z,11.05
2023-04-14T06:49:56.671Z,9.32
2023-04-14T06:52:26.153Z,12.60
2023-04-14T06:54:54.372Z,10.52
2023-04-14T06:57:22.938Z,10.80
2023-04-14T06:59:51.196Z,11.95
2023-04-14T07:02:19.493Z,10.25
2023-04-14T07:04:47.771Z,12.35
2023-04-14T07:07:15.978Z,11.95
2023-04-14T07:09:48.448Z,12.07
2023-04-14T07:12:17.722Z,10.98
2023-04-14T07:14:53.912Z,11.65
2023-04-14T07:17:24.574Z,10.27
2023-04-14T07:19:52.846Z,11.68
2023-04-14T07:22:21.364Z,9.15
2023-04-14T07:24:50.965Z,11.52
2023-04-14T07:27:19.149Z,8.95
2023-04-14T07:29:47.410Z,10.40
2023-04-14T07:32:15.926Z,9.88
2023-04-14T07:34:44.305Z,9.85
2023-04-14T07:37:13.785Z,9.20
2023-04-14T07:39:41.998Z,9.43
2023-04-14T07:42:12.232Z,7.10
2023-04-14T07:44:40.581Z,8.55
2023-04-14T07:47:08.853Z,8.65
2023-04-14T07:49:37.301Z,7.00
2023-04-14T07:52:05.801Z,8.88
2023-04-14T07:54:37.205Z,8.02
2023-04-14T07:57:10.924Z,8.52
2023-04-14T07:59:42.791Z,7.47
2023-04-14T08:02:11.428Z,8.20
2023-04-14T08:04:39.806Z,7.88
2023-04-14T08:07:08.037Z,7.70
2023-04-14T08:09:36.230Z,6.40
2023-04-14T08:12:04.611Z,6.32
2023-04-14T08:14:35.620Z,6.78
2023-04-14T08:17:05.426Z,6.47
2023-04-14T08:19:34.014Z,6.25
2023-04-14T08:22:02.408Z,5.57
2023-04-14T08:24:30.595Z,5.85
2023-04-14T08:26:58.800Z,7.22
2023-04-14T08:29:27.008Z,5.07
2023-04-14T08:31:55.409Z,5.63
2023-04-14T08:34:28.593Z,5.68
2023-04-14T08:36:57.704Z,5.78
2023-04-14T08:39:26.136Z,5.25
2023-04-14T08:41:54.626Z,5.82
2023-04-14T08:44:23.347Z,6.63
2023-04-14T08:46:53.422Z,5.70
2023-04-14T08:49:33.270Z,6.55
2023-04-14T08:52:04.031Z,6.47
2023-04-14T08:54:33.127Z,6.82
2023-04-14T08:57:05.294Z,6.30
2023-04-14T08:59:36.596Z,5.82
2023-04-14T09:02:06.750Z,5.95
2023-04-14T09:04:37.311Z,7.07
2023-04-14T09:07:07.044Z,5.72
2023-04-14T09:09:35.496Z,6.05
2023-04-14T09:12:04.829Z,7.07
2023-04-14T09:14:34.455Z,6.60
2023-04-14T09:17:05.601Z,6.40
2023-04-14T09:19:35.868Z,6.45
2023-04-14T09:22:04.207Z,5.97
2023-04-14T09:24:34.308Z,6.70
2023-04-14T09:27:05.118Z,5.55
2023-04-14T09:29:33.645Z,5.55
2023-04-14T09:32:01.936Z,5.55
2023-04-14T09:34:30.288Z,5.45
2023-04-14T09:37:04.873Z,5.55
2023-04-14T09:39:33.716Z,5.50
2023-04-14T09:42:02.735Z,5.15
2023-04-14T09:44:31.059Z,5.00
2023-04-14T09:47:00.790Z,4.75
2023-04-14T09:49:30.174Z,4.47
2023-04-14T09:52:05.543Z,6.00
2023-04-14T09:54:36.639Z,11.10
2023-04-14T09:57:05.115Z,4.47
2023-04-14T09:59:37.727Z,3.33
2023-04-14T10:02:07.915Z,2.80
2023-04-14T10:04:37.346Z,2.80
2023-04-14T10:07:08.917Z,3.28
2023-04-14T10:09:39.639Z,2.58
2023-04-14T10:12:10.180Z,2.67
2023-04-14T10:14:38.907Z,2.38
2023-04-14T10:17:07.727Z,2.28
2023-04-14T10:19:37.586Z,2.63
2023-04-14T10:22:08.201Z,1.77
2023-04-14T10:24:38.590Z,2.40
2023-04-14T10:27:07.408Z,2.10
2023-04-14T10:29:35.996Z,2.03
2023-04-14T10:32:06.323Z,2.17
2023-04-14T10:34:35.096Z,2.20
2023-04-14T10:37:17.345Z,1.95
2023-04-14T10:39:55.911Z,2.17
2023-04-14T10:42:24.825Z,2.17
2023-04-14T10:45:06.876Z,2.30
2023-04-14T10:47:36.195Z,2.28
2023-04-14T10:50:14.959Z,2.40
2023-04-14T10:52:55.854Z,2.17
2023-04-14T10:55:25.756Z,2.72
2023-04-14T10:58:04.749Z,2.42
2023-04-14T11:00:33.300Z,2.22
2023-04-14T11:03:05.772Z,2.83
2023-04-14T11:05:35.063Z,2.20
2023-04-14T11:08:17.308Z,2.17
2023-04-14T11:11:01.226Z,2.08
2023-04-14T11:13:30.331Z,2.20
2023-04-14T11:16:02.267Z,5.72
2023-04-14T11:18:35.722Z,10.75
2023-04-14T11:21:05.727Z,10.80
2023-04-14T11:23:36.767Z,4.38
2023-04-14T11:26:07.138Z,3.00
2023-04-14T11:28:36.491Z,3.58
2023-04-14T11:31:06.281Z,3.33
2023-04-14T11:33:37.031Z,5.50
2023-04-14T11:36:07.124Z,4.50
2023-04-14T11:38:40.241Z,7.13
2023-04-14T11:41:08.802Z,3.88
2023-04-14T11:43:38.581Z,3.70
2023-04-14T11:46:08.212Z,2.20
2023-04-14T11:48:36.947Z,3.15
2023-04-14T11:51:05.491Z,2.65
2023-04-14T11:53:34.630Z,4.30
2023-04-14T11:56:08.680Z,6.35
2023-04-14T11:58:37.158Z,3.47
2023-04-14T12:01:10.602Z,5.30
2023-04-14T12:03:39.380Z,4.80
2023-04-14T12:06:08.127Z,3.60
2023-04-14T12:08:37.114Z,2.83
2023-04-14T12:11:24.567Z,2.30
2023-04-14T12:13:53.141Z,3.22
2023-04-14T12:16:22.061Z,3.03
2023-04-14T12:18:51.332Z,4.05
2023-04-14T12:21:21.250Z,4.70
2023-04-14T12:23:50.114Z,2.75
2023-04-14T12:26:19.479Z,2.33
2023-04-14T12:28:56.928Z,2.20
2023-04-14T12:31:29.577Z,2.20
2023-04-14T12:34:03.273Z,1.95
2023-04-14T12:37:48.201Z,2.38
2023-04-14T12:39:22.088Z,2.28
2023-04-14T12:41:51.931Z,2.67
2023-04-14T12:44:24.321Z,2.30
2023-04-14T12:46:53.989Z,2.88
2023-04-14T12:49:38.613Z,2.45
2023-04-14T12:52:08.309Z,2.60
2023-04-14T12:54:51.655Z,2.92
2023-04-14T12:57:21.637Z,3.00
2023-04-14T12:59:51.993Z,2.72
2023-04-14T13:02:20.438Z,2.70
2023-04-14T13:04:48.682Z,2.67
2023-04-14T13:07:16.956Z,3.25
2023-04-14T13:09:45.334Z,2.53
2023-04-14T13:12:15.956Z,2.85
2023-04-14T13:14:44.161Z,3.42
2023-04-14T13:17:17.271Z,3.17
2023-04-14T13:19:46.038Z,3.10
2023-04-14T13:22:17.425Z,2.70
2023-04-14T13:24:45.989Z,3.17
2023-04-14T13:27:15.790Z,3.38
2023-04-14T13:29:44.254Z,3.40
2023-04-14T13:32:16.197Z,3.63
2023-04-14T13:34:44.890Z,3.15
2023-04-14T13:37:13.116Z,3.10
2023-04-14T13:39:41.371Z,3.03
2023-04-14T13:42:09.704Z,3.17
2023-04-14T13:44:40.698Z,3.08
2023-04-14T13:47:10.032Z,3.20
2023-04-14T13:49:39.604Z,3.72
2023-04-14T13:52:09.140Z,3.05
2023-04-14T13:54:37.375Z,6.43
2023-04-14T13:57:05.965Z,3.58
2023-04-14T13:59:34.331Z,4.22
2023-04-14T14:02:02.657Z,4.95
2023-04-14T14:04:31.641Z,3.88
2023-04-14T14:07:03.902Z,3.90
2023-04-14T14:09:32.112Z,3.67
2023-04-14T14:12:00.359Z,3.08
2023-04-14T14:14:28.708Z,2.65
2023-04-14T14:16:57.118Z,3.63
2023-04-14T14:19:28.365Z,2.83
2023-04-14T14:21:56.625Z,2.95
2023-04-14T14:24:26.214Z,4.60
2023-04-14T14:26:57.912Z,2.70
2023-04-14T14:29:26.221Z,2.97
2023-04-14T14:31:54.444Z,2.75
2023-04-14T14:34:22.668Z,2.63
2023-04-14T14:36:50.901Z,2.75
2023-04-14T14:39:19.343Z,2.42
2023-04-14T14:41:49.272Z,2.85
2023-04-14T14:44:17.786Z,2.70
2023-04-14T14:46:46.243Z,2.80
2023-04-14T14:49:14.634Z,3.10
2023-04-14T14:51:42.772Z,2.97
2023-04-14T14:54:10.940Z,2.70
2023-04-14T14:56:39.171Z,2.80
2023-04-14T14:59:09.597Z,2.92
2023-04-14T15:01:37.830Z,2.80
2023-04-14T15:04:06.776Z,2.88
2023-04-14T15:06:36.011Z,2.88
2023-04-14T15:09:05.435Z,2.97
2023-04-14T15:11:33.619Z,3.05
2023-04-14T15:14:02.130Z,2.63
2023-04-14T15:16:31.779Z,2.50
2023-04-14T15:19:02.503Z,2.63
2023-04-14T15:21:32.822Z,2.53
2023-04-14T15:24:01.875Z,2.70
2023-04-14T15:26:30.220Z,2.95
2023-04-14T15:28:58.417Z,2.65
2023-04-14T15:31:26.621Z,3.13
2023-04-14T15:33:59.585Z,2.90
2023-04-14T15:36:28.074Z,2.67
2023-04-14T15:38:56.293Z,3.10
2023-04-14T15:41:24.559Z,2.85
2023-04-14T15:43:52.740Z,2.80
2023-04-14T15:46:20.934Z,2.63
2023-04-14T15:48:49.336Z,2.65
2023-04-14T15:51:19.620Z,2.90
2023-04-14T15:53:47.757Z,2.80
2023-04-14T15:56:15.866Z,2.63
2023-04-14T15:58:46.392Z,2.85
2023-04-14T16:01:14.611Z,2.30
2023-04-14T16:03:42.908Z,2.70
2023-04-14T16:06:11.443Z,3.17
2023-04-14T16:08:41.019Z,3.03
2023-04-14T16:11:15.127Z,3.22
2023-04-14T16:13:45.565Z,2.90
2023-04-14T16:16:14.821Z,3.25
2023-04-14T16:18:43.373Z,3.00
2023-04-14T16:21:13.883Z,3.22
2023-04-14T16:23:44.025Z,3.33
2023-04-14T16:26:12.455Z,3.80
2023-04-14T16:28:40.671Z,3.63
2023-04-14T16:31:09.204Z,3.17
2023-04-14T16:33:37.867Z,3.40
2023-04-14T16:36:07.267Z,3.22
2023-04-14T16:38:35.537Z,3.00
2023-04-14T16:41:05.122Z,3.22
2023-04-14T16:43:35.889Z,3.30
2023-04-14T16:46:05.055Z,3.38
2023-04-14T16:48:33.475Z,3.30
2023-04-14T16:51:05.556Z,3.35
2023-04-14T16:53:33.971Z,3.65
2023-04-14T16:56:07.373Z,3.45
2023-04-14T16:58:36.536Z,3.58
2023-04-14T17:01:06.123Z,3.65
2023-04-14T17:03:34.805Z,3.75
2023-04-14T17:06:03.241Z,3.20
2023-04-14T17:08:34.165Z,3.50
2023-04-14T17:11:02.325Z,4.53
2023-04-14T17:13:34.268Z,4.22
2023-04-14T17:16:08.846Z,3.67
2023-04-14T17:18:37.656Z,3.40
2023-04-14T17:21:07.000Z,3.70
2023-04-14T17:23:37.014Z,4.00
2023-04-14T17:26:05.608Z,3.72
2023-04-14T17:28:35.719Z,3.83
2023-04-14T17:31:09.969Z,3.58
2023-04-14T17:33:38.187Z,4.30
2023-04-14T17:36:07.980Z,5.05
2023-04-14T17:38:38.570Z,6.13
2023-04-14T17:41:11.629Z,4.78
2023-04-14T17:43:42.414Z,5.28
2023-04-14T17:46:11.681Z,4.35
2023-04-14T17:48:40.324Z,4.60
2023-04-14T17:51:08.595Z,5.40
2023-04-14T17:53:36.779Z,4.95
2023-04-14T17:56:06.712Z,4.50
2023-04-14T17:58:34.853Z,4.57
2023-04-14T18:01:04.820Z,5.20
2023-04-14T18:03:32.989Z,4.80
2023-04-14T18:06:02.668Z,4.30
2023-04-14T18:08:31.031Z,4.43
2023-04-14T18:10:59.958Z,4.68
2023-04-14T18:13:28.683Z,4.70
2023-04-14T18:15:57.379Z,4.60
2023-04-14T18:18:27.588Z,4.70
2023-04-14T18:20:55.762Z,4.53
2023-04-14T18:23:24.792Z,4.60
2023-04-14T18:28:31.007Z,4.85
2023-04-14T18:30:59.465Z,4.93
2023-04-14T18:33:30.416Z,5.07
2023-04-14T18:36:00.334Z,4.75
2023-04-14T18:38:28.667Z,4.90
2023-04-14T18:41:05.222Z,4.50
2023-04-14T18:43:34.292Z,4.90
2023-04-14T18:46:05.279Z,4.82
2023-04-14T18:48:36.751Z,4.55
2023-04-14T18:51:10.261Z,4.53
2023-04-14T18:53:43.323Z,5.00
2023-04-14T18:56:18.029Z,4.30
2023-04-14T18:58:49.308Z,4.72
2023-04-14T19:01:19.778Z,5.03
2023-04-14T19:03:49.503Z,4.78
2023-04-14T19:06:17.788Z,5.78
2023-04-14T19:08:46.076Z,5.10
2023-04-14T19:11:15.256Z,4.68
2023-04-14T19:13:43.405Z,4.10
2023-04-14T19:16:12.611Z,4.07
2023-04-14T19:18:41.812Z,4.10
2023-04-14T19:21:11.350Z,3.50
2023-04-14T19:23:40.867Z,3.10
2023-04-14T19:26:11.383Z,3.70
2023-04-14T19:28:42.656Z,3.80
2023-04-14T19:31:14.148Z,4.35
2023-04-14T19:33:42.598Z,4.20
2023-04-14T19:36:17.644Z,4.00
2023-04-14T19:38:49.317Z,3.95
2023-04-14T19:41:20.798Z,4.15
2023-04-14T19:43:52.280Z,7.28
2023-04-14T19:46:20.429Z,11.70
2023-04-14T19:48:50.180Z,14.38
2023-04-14T19:51:22.325Z,14.18
2023-04-14T19:53:51.639Z,13.38
2023-04-14T19:56:19.816Z,8.07
2023-04-14T19:58:48.098Z,6.22
2023-04-14T20:01:16.394Z,7.00
2023-04-14T20:04:05.465Z,5.55
2023-04-14T20:06:37.992Z,3.08
2023-04-14T20:09:06.464Z,3.47
2023-04-14T20:11:34.711Z,4.63
2023-04-14T20:14:05.935Z,3.40
2023-04-14T20:16:34.768Z,4.70
2023-04-14T20:19:03.590Z,4.95
2023-04-14T20:21:34.231Z,4.63
2023-04-14T20:24:05.870Z,5.97
2023-04-14T20:26:36.022Z,5.03
2023-04-14T20:29:12.778Z,3.72
2023-04-14T20:31:44.123Z,2.75
2023-04-14T20:34:12.627Z,2.60
2023-04-14T20:36:45.195Z,2.22
2023-04-14T20:39:16.722Z,2.63
2023-04-14T20:41:49.361Z,2.40
2023-04-14T20:44:18.635Z,1.98
2023-04-14T20:46:47.403Z,1.85
2023-04-14T20:49:15.585Z,2.20
2023-04-14T20:51:46.763Z,1.92
2023-04-14T20:54:19.032Z,1.75
2023-04-14T20:56:47.283Z,1.70
2023-04-14T20:59:18.520Z,1.35
2023-04-14T21:01:47.043Z,1.33
2023-04-14T21:04:15.790Z,1.67
2023-04-14T21:06:45.129Z,1.85
2023-04-14T21:09:15.627Z,2.08
2023-04-14T21:11:45.881Z,2.03
2023-04-14T21:15:29.324Z,1.60
2023-04-14T21:17:08.487Z,1.70
2023-04-14T21:19:36.653Z,1.95
2023-04-14T21:22:04.836Z,2.72
2023-04-14T21:24:34.267Z,2.50
2023-04-14T21:27:05.840Z,2.25
2023-04-14T21:29:36.454Z,1.88
2023-04-14T21:32:05.352Z,1.65
2023-04-14T21:34:33.642Z,2.20
2023-04-14T21:37:01.886Z,2.25
2023-04-14T21:39:35.468Z,2.78
2023-04-14T21:42:08.173Z,2.10
2023-04-14T21:44:36.630Z,5.43
2023-04-14T21:47:05.103Z,2.60
2023-04-14T21:49:33.375Z,2.70
2023-04-14T21:52:01.568Z,2.22
2023-04-14T21:54:33.428Z,2.05
2023-04-14T21:57:01.633Z,2.10
2023-04-14T21:59:31.264Z,1.90
2023-04-14T22:01:59.768Z,2.17
2023-04-14T22:04:35.973Z,2.35
2023-04-14T22:07:05.421Z,3.00
2023-04-14T22:09:34.381Z,2.08
2023-04-14T22:12:03.302Z,2.28
2023-04-14T22:14:36.063Z,1.60
2023-04-14T22:17:04.387Z,1.90
2023-04-14T22:19:32.944Z,2.05
2023-04-14T22:22:01.131Z,2.20
2023-04-14T22:24:29.588Z,2.00
2023-04-14T22:26:57.795Z,1.83
2023-04-14T22:29:26.012Z,1.75
2023-04-14T22:31:55.590Z,2.25
2023-04-14T22:34:23.806Z,2.10
2023-04-14T22:36:52.037Z,1.77
2023-04-14T22:39:20.325Z,1.90
2023-04-14T22:41:49.651Z,2.22
2023-04-14T22:44:18.165Z,2.90
2023-04-14T22:46:46.356Z,2.83
2023-04-14T22:49:15.913Z,3.10
2023-04-14T22:51:44.077Z,2.72
2023-04-14T22:54:12.316Z,3.47
2023-04-14T22:56:41.036Z,2.47
2023-04-14T22:59:09.218Z,3.50
2023-04-14T23:01:37.408Z,3.90
2023-04-14T23:04:05.862Z,2.67
2023-04-14T23:06:35.517Z,3.67
2023-04-14T23:09:05.479Z,14.23
2023-04-14T23:11:33.758Z,4.47
2023-04-14T23:14:02.773Z,5.75
2023-04-14T23:16:31.075Z,4.32
2023-04-14T23:18:59.398Z,3.63
2023-04-14T23:21:27.772Z,2.90
2023-04-14T23:23:57.424Z,7.25
2023-04-14T23:26:26.405Z,3.22
2023-04-14T23:28:54.586Z,5.70
2023-04-14T23:31:23.959Z,13.95
2023-04-14T23:33:52.852Z,6.72
2023-04-14T23:36:21.447Z,3.30
2023-04-14T23:38:49.766Z,4.15
2023-04-14T23:41:19.569Z,5.97
2023-04-14T23:43:49.428Z,5.78
2023-04-14T23:46:17.657Z,4.60
2023-04-14T23:48:45.989Z,2.10
2023-04-14T23:51:20.690Z,2.33
2023-04-14T23:53:49.541Z,1.95
2023-04-14T23:56:19.352Z,2.03
2023-04-14T23:58:47.543Z,2.30
